Ana Sayfa
METAR-TAF:

METAR-TAF

Havaalanları :

Tak, Tayland

Enlem: 16-53N, Boylam: 099-09E, yükseklik: 121 m

METAR: eksik

Saat: 14:30 (07:30 UTC)

Tahmin

Rapor saat 05:00 UTC de 2 saat ve 30 dakika önce yapıldı.
Ayın 14'si saat 06 UTC'den ayın 15'si saat 06 UTC'ye kadar geçerli Tahmin
Rüzgar doğudan 5 kt
Görüş mesafesi: 7000 m

TAF: VTPT 140500Z 1406/1506 08005KT 7000 NSC

4.000'den fazla havaalanı için hava durumu gözlemleri ve tahminleri (METAR ve TAF raporları).

Kullanılabilir istasyonlar harita üzerinde sarı ve kırmızı noktalarla gösterilir.

İstasyonun adını görmek için fareyi noktanın üzerinde gezdirin.

Sonrasında hava gözlem ve tahminlerini görmek için tıklayın.

Haritayı değiştirmek için: yaklaştırmak için siyah artı işaretli yeşil düğmeye ve uzaklaştırmak için de eksi işaretli düğmeye hızla tıklayın; bitişik haritalar için yeşil okları kullanın.


METAR-TAF: